createdAt,value
2019-01-04T00:03:42.312Z,102213.00
2019-01-04T00:08:43.559Z,102209.00
2019-01-04T00:13:45.009Z,102206.00
2019-01-04T00:18:46.359Z,102199.00
2019-01-04T00:23:47.631Z,102192.00
2019-01-04T00:28:48.978Z,102189.00
2019-01-04T00:33:50.220Z,102191.00
2019-01-04T00:38:51.455Z,102192.00
2019-01-04T00:43:52.694Z,102196.00
2019-01-04T00:48:53.934Z,102203.00
2019-01-04T00:53:55.276Z,102202.00
2019-01-04T00:59:25.657Z,102184.00
2019-01-04T01:05:11.425Z,102186.00
2019-01-04T01:10:36.911Z,102175.00
2019-01-04T01:16:15.380Z,102161.00
2019-01-04T01:21:31.175Z,102172.00
2019-01-04T01:26:50.272Z,102176.00
2019-01-04T01:31:54.602Z,102174.00
2019-01-04T01:37:16.715Z,102180.00
2019-01-04T01:42:57.170Z,102184.00
2019-01-04T01:47:58.907Z,102190.00
2019-01-04T01:53:00.163Z,102199.00
2019-01-04T01:58:01.381Z,102197.00
2019-01-04T02:03:02.675Z,102202.00
2019-01-04T02:08:03.865Z,102219.00
2019-01-04T02:13:05.119Z,102209.00
2019-01-04T02:18:06.356Z,102208.00
2019-01-04T02:23:07.598Z,102213.00
2019-01-04T02:28:08.840Z,102200.00
2019-01-04T02:33:10.073Z,102191.00
2019-01-04T02:38:11.319Z,102188.00
2019-01-04T02:43:12.567Z,102174.00
2019-01-04T02:48:13.819Z,102179.00
2019-01-04T02:53:15.066Z,102172.00
2019-01-04T02:58:17.318Z,102171.00
2019-01-04T03:03:18.559Z,102191.00
2019-01-04T03:08:19.787Z,102194.00
2019-01-04T03:13:21.046Z,102205.00
2019-01-04T03:18:22.269Z,102192.00
2019-01-04T03:23:23.510Z,102185.00
2019-01-04T03:28:24.745Z,102173.00
2019-01-04T03:33:25.973Z,102164.00
2019-01-04T03:38:27.230Z,102160.00
2019-01-04T03:43:28.475Z,102154.00
2019-01-04T03:48:29.745Z,102146.00
2019-01-04T03:53:30.983Z,102154.00
2019-01-04T03:58:32.214Z,102151.00
2019-01-04T04:03:33.439Z,102163.00
2019-01-04T04:08:34.666Z,102151.00
2019-01-04T04:13:35.902Z,102158.00
2019-01-04T04:18:37.153Z,102161.00
2019-01-04T04:23:38.374Z,102151.00
2019-01-04T04:28:39.612Z,102154.00
2019-01-04T04:33:40.850Z,102163.00
2019-01-04T04:38:42.079Z,102154.00
2019-01-04T04:43:43.333Z,102164.00
2019-01-04T04:48:44.580Z,102172.00
2019-01-04T04:53:45.843Z,102156.00
2019-01-04T04:58:47.069Z,102160.00
2019-01-04T05:03:48.413Z,102157.00
2019-01-04T05:08:49.649Z,102147.00
2019-01-04T05:13:50.896Z,102144.00
2019-01-04T05:18:52.140Z,102156.00
2019-01-04T05:23:53.382Z,102155.00
2019-01-04T05:28:54.590Z,102146.00
2019-01-04T05:33:55.841Z,102150.00
2019-01-04T05:38:57.076Z,102140.00
2019-01-04T05:43:58.318Z,102139.00
2019-01-04T05:48:59.549Z,102114.00
2019-01-04T05:54:00.782Z,102132.00
2019-01-04T05:59:02.010Z,102130.00
2019-01-04T06:04:03.344Z,102119.00
2019-01-04T06:09:06.580Z,102152.00
2019-01-04T06:14:07.812Z,102148.00
2019-01-04T06:19:09.060Z,102136.00
2019-01-04T06:24:10.308Z,102142.00
2019-01-04T06:29:11.533Z,102137.00
2019-01-04T06:34:12.805Z,102144.00
2019-01-04T06:39:14.048Z,102142.00
2019-01-04T06:44:15.276Z,102144.00
2019-01-04T06:49:16.513Z,102153.00
2019-01-04T06:54:40.267Z,102155.00
2019-01-04T06:59:41.496Z,102168.00
2019-01-04T07:04:42.727Z,102167.00
2019-01-04T07:09:43.963Z,102159.00
2019-01-04T07:14:45.197Z,102171.00
2019-01-04T07:19:46.479Z,102164.00
2019-01-04T07:24:47.716Z,102167.00
2019-01-04T07:29:48.956Z,102161.00
2019-01-04T07:34:50.226Z,102174.00
2019-01-04T07:39:51.450Z,102176.00
2019-01-04T07:44:52.707Z,102179.00
2019-01-04T07:49:53.933Z,102180.00
2019-01-04T07:54:55.181Z,102179.00
2019-01-04T07:59:56.434Z,102173.00
2019-01-04T08:04:57.673Z,102184.00
2019-01-04T08:09:58.978Z,102200.00
2019-01-04T08:15:00.181Z,102203.00
2019-01-04T08:20:01.886Z,102198.00
2019-01-04T08:25:05.331Z,102191.00
2019-01-04T08:30:10.205Z,102191.00
2019-01-04T08:35:11.461Z,102203.00
2019-01-04T08:40:12.675Z,102205.00
2019-01-04T08:45:14.021Z,102222.00
2019-01-04T08:50:15.271Z,102217.00
2019-01-04T08:55:16.620Z,102221.00
2019-01-04T09:00:17.866Z,102209.00
2019-01-04T09:05:19.094Z,102203.00
2019-01-04T09:10:20.331Z,102230.00
2019-01-04T09:15:21.587Z,102219.00
2019-01-04T09:20:22.825Z,102208.00
2019-01-04T09:25:24.174Z,102211.00
2019-01-04T09:30:25.423Z,102197.00
2019-01-04T09:35:26.678Z,102200.00
2019-01-04T09:40:27.907Z,102207.00
2019-01-04T09:45:29.167Z,102198.00
2019-01-04T09:50:30.424Z,102202.00
2019-01-04T09:55:31.673Z,102182.00
2019-01-04T10:00:32.926Z,102182.00
2019-01-04T10:05:34.174Z,102167.00
2019-01-04T10:10:35.413Z,102150.00
2019-01-04T10:15:36.643Z,102158.00
2019-01-04T10:20:37.907Z,102141.00
2019-01-04T10:25:39.179Z,102131.00
2019-01-04T10:30:40.522Z,102104.00
2019-01-04T10:35:41.780Z,102106.00
2019-01-04T10:40:43.016Z,102109.00
2019-01-04T10:45:44.260Z,102105.00
2019-01-04T10:50:45.501Z,102104.00
2019-01-04T10:55:46.744Z,102095.00
2019-01-04T11:00:48.003Z,102090.00
2019-01-04T11:05:49.253Z,102088.00
2019-01-04T11:10:50.497Z,102083.00
2019-01-04T11:15:51.732Z,102076.00
2019-01-04T11:20:54.694Z,102066.00
2019-01-04T11:26:01.696Z,102036.00
2019-01-04T11:31:17.748Z,102050.00
2019-01-04T11:36:24.712Z,102038.00
2019-01-04T11:41:48.532Z,102038.00
2019-01-04T11:47:13.615Z,102045.00
2019-01-04T11:52:20.561Z,102026.00
2019-01-04T11:57:21.817Z,102021.00
2019-01-04T12:02:26.355Z,102005.00
2019-01-04T12:07:26.345Z,102001.00
2019-01-04T12:12:27.593Z,102001.00
2019-01-04T12:17:28.872Z,101981.00
2019-01-04T12:22:30.134Z,101986.00
2019-01-04T12:27:33.238Z,101983.00
2019-01-04T12:32:36.386Z,101988.00
2019-01-04T12:37:37.748Z,101987.00
2019-01-04T12:42:38.972Z,101976.00
2019-01-04T12:47:40.238Z,101978.00
2019-01-04T12:52:44.269Z,101972.00
2019-01-04T12:57:45.531Z,101983.00
2019-01-04T13:02:46.798Z,101972.00
2019-01-04T13:07:48.052Z,101971.00
2019-01-04T13:12:49.282Z,101961.00
2019-01-04T13:17:50.567Z,101944.00
2019-01-04T13:22:51.943Z,101931.00
2019-01-04T13:27:53.237Z,101933.00
2019-01-04T13:32:54.723Z,101932.00
2019-01-04T13:37:55.967Z,101933.00
2019-01-04T13:42:57.207Z,101928.00
2019-01-04T13:47:58.511Z,101912.00
2019-01-04T13:52:59.768Z,101888.00
2019-01-04T13:58:01.021Z,101905.00
2019-01-04T14:03:02.281Z,101892.00
2019-01-04T14:08:03.552Z,101899.00
2019-01-04T14:13:09.226Z,101870.00
2019-01-04T14:18:08.118Z,101839.00
2019-01-04T14:23:09.404Z,101849.00
2019-01-04T14:28:10.661Z,101841.00
2019-01-04T14:33:11.919Z,101817.00
2019-01-04T14:38:14.086Z,101808.00
2019-01-04T14:43:15.336Z,101818.00
2019-01-04T14:48:16.587Z,101820.00
2019-01-04T14:53:17.822Z,101818.00
2019-01-04T14:58:19.088Z,101800.00
2019-01-04T15:03:20.519Z,101813.00
2019-01-04T15:08:21.793Z,101815.00
2019-01-04T15:13:23.065Z,101802.00
2019-01-04T15:18:24.310Z,101793.00
2019-01-04T15:23:25.548Z,101804.00
2019-01-04T15:28:26.903Z,101803.00
2019-01-04T15:33:28.188Z,101797.00
2019-01-04T15:38:29.417Z,101793.00
2019-01-04T15:43:30.656Z,101815.00
2019-01-04T15:48:31.895Z,101814.00
2019-01-04T15:53:33.185Z,101832.00
2019-01-04T15:58:34.464Z,101822.00
2019-01-04T16:03:35.682Z,101844.00
2019-01-04T16:08:36.956Z,101863.00
2019-01-04T16:13:38.229Z,101872.00
2019-01-04T16:18:39.514Z,101864.00
2019-01-04T16:23:40.768Z,101873.00
2019-01-04T16:28:42.013Z,101865.00
2019-01-04T16:33:43.288Z,101873.00
2019-01-04T16:38:44.658Z,101877.00
2019-01-04T16:43:45.918Z,101864.00
2019-01-04T16:48:47.270Z,101835.00
2019-01-04T16:53:48.510Z,101837.00
2019-01-04T16:58:49.789Z,101810.00
2019-01-04T17:03:51.468Z,101827.00
2019-01-04T17:08:52.722Z,101801.00
2019-01-04T17:13:53.978Z,101792.00
2019-01-04T17:18:55.270Z,101814.00
2019-01-04T17:23:56.526Z,101810.00
2019-01-04T17:28:57.778Z,101819.00
2019-01-04T17:33:59.148Z,101813.00
2019-01-04T17:39:00.605Z,101801.00
2019-01-04T17:44:01.864Z,101791.00
2019-01-04T17:49:03.232Z,101793.00
2019-01-04T17:54:04.505Z,101805.00
2019-01-04T17:59:05.773Z,101811.00
2019-01-04T18:04:07.020Z,101806.00
2019-01-04T18:09:08.497Z,101784.00
2019-01-04T18:14:09.856Z,101789.00
2019-01-04T18:19:11.189Z,101794.00
2019-01-04T18:24:12.431Z,101802.00
2019-01-04T18:29:13.683Z,101789.00
2019-01-04T18:34:14.946Z,101781.00
2019-01-04T18:39:16.347Z,101766.00
2019-01-04T18:44:17.608Z,101755.00
2019-01-04T18:49:18.893Z,101760.00
2019-01-04T18:54:20.181Z,101760.00
2019-01-04T18:59:21.452Z,101763.00
2019-01-04T19:04:22.723Z,101783.00
2019-01-04T19:09:24.082Z,101783.00
2019-01-04T19:14:25.330Z,101779.00
2019-01-04T19:19:26.611Z,101781.00
2019-01-04T19:24:27.889Z,101786.00
2019-01-04T19:29:29.146Z,101784.00
2019-01-04T19:34:30.397Z,101793.00
2019-01-04T19:39:31.793Z,101790.00
2019-01-04T19:44:33.132Z,101796.00
2019-01-04T19:49:34.395Z,101794.00
2019-01-04T19:54:35.683Z,101791.00
2019-01-04T19:59:37.015Z,101796.00
2019-01-04T20:04:38.287Z,101793.00
2019-01-04T20:10:33.036Z,101782.00
2019-01-04T20:16:09.047Z,101787.00
2019-01-04T20:21:28.609Z,101779.00
2019-01-04T20:26:31.772Z,101787.00
2019-01-04T20:31:51.665Z,101775.00
2019-01-04T20:37:11.668Z,101775.00
2019-01-04T20:42:23.967Z,101764.00
2019-01-04T20:47:39.116Z,101770.00
2019-01-04T20:52:48.328Z,101771.00
2019-01-04T20:58:06.814Z,101759.00
2019-01-04T21:03:15.932Z,101759.00
2019-01-04T21:08:28.289Z,101758.00
2019-01-04T21:13:34.334Z,101753.00
2019-01-04T21:18:43.159Z,101755.00
2019-01-04T21:23:55.522Z,101742.00
2019-01-04T21:28:58.694Z,101745.00
2019-01-04T21:34:10.540Z,101742.00
2019-01-04T21:39:13.748Z,101743.00
2019-01-04T21:44:19.823Z,101751.00
2019-01-04T21:49:23.012Z,101748.00
2019-01-04T21:54:44.192Z,101734.00
2019-01-04T22:00:04.265Z,101746.00
2019-01-04T22:05:07.532Z,101736.00
2019-01-04T22:10:27.484Z,101746.00
2019-01-04T22:15:39.903Z,101744.00
2019-01-04T22:20:59.698Z,101743.00
2019-01-04T22:26:05.808Z,101740.00
2019-01-04T22:31:24.203Z,101733.00
2019-01-04T22:36:44.160Z,101732.00
2019-01-04T22:42:03.879Z,101724.00
2019-01-04T22:47:09.817Z,101720.00
2019-01-04T22:52:12.987Z,101721.00
2019-01-04T22:57:33.096Z,101719.00
2019-01-04T23:02:45.301Z,101720.00
2019-01-04T23:08:03.411Z,101716.00
2019-01-04T23:13:06.561Z,101719.00
2019-01-04T23:18:26.354Z,101741.00
2019-01-04T23:23:44.699Z,101728.00
2019-01-04T23:28:47.953Z,101730.00
2019-01-04T23:34:07.530Z,101723.00
2019-01-04T23:39:10.704Z,101718.00
2019-01-04T23:44:30.659Z,101725.00
2019-01-04T23:49:45.991Z,101720.00
2019-01-04T23:54:49.158Z,101704.00
2019-01-04T23:59:57.946Z,101709.00
